createdAt,value
2018-01-22T00:01:19.177Z,99.90
2018-01-22T00:03:47.117Z,99.90
2018-01-22T00:06:15.140Z,99.90
2018-01-22T00:08:43.213Z,99.90
2018-01-22T00:11:11.157Z,99.90
2018-01-22T00:13:39.087Z,99.90
2018-01-22T00:16:07.143Z,99.90
2018-01-22T00:18:35.043Z,99.90
2018-01-22T00:21:02.969Z,99.90
2018-01-22T00:23:31.023Z,99.90
2018-01-22T00:25:59.021Z,99.90
2018-01-22T00:28:26.953Z,99.90
2018-01-22T00:30:55.024Z,99.90
2018-01-22T00:33:22.967Z,99.90
2018-01-22T00:35:51.629Z,99.90
2018-01-22T00:38:19.701Z,99.90
2018-01-22T00:40:47.643Z,99.90
2018-01-22T00:43:15.579Z,99.90
2018-01-22T00:45:44.425Z,99.90
2018-01-22T00:48:12.363Z,99.90
2018-01-22T00:50:40.287Z,99.90
2018-01-22T00:53:08.447Z,99.90
2018-01-22T00:55:36.379Z,99.90
2018-01-22T00:58:04.329Z,99.90
2018-01-22T01:00:32.387Z,99.90
2018-01-22T01:03:01.082Z,99.90
2018-01-22T01:05:29.824Z,99.90
2018-01-22T01:07:57.890Z,99.90
2018-01-22T01:10:25.865Z,99.90
2018-01-22T01:12:53.814Z,99.90
2018-01-22T01:15:22.025Z,99.90
2018-01-22T01:17:49.943Z,99.90
2018-01-22T01:20:17.902Z,99.90
2018-01-22T01:22:46.709Z,99.90
2018-01-22T01:25:14.639Z,99.90
2018-01-22T01:27:42.587Z,99.90
2018-01-22T01:30:10.639Z,99.90
2018-01-22T01:32:38.621Z,99.90
2018-01-22T01:35:06.576Z,99.90
2018-01-22T01:37:34.656Z,99.90
2018-01-22T01:40:02.599Z,99.90
2018-01-22T01:42:30.590Z,99.90
2018-01-22T01:44:58.643Z,99.90
2018-01-22T01:47:26.581Z,99.90
2018-01-22T01:49:55.259Z,99.90
2018-01-22T01:52:23.325Z,99.90
2018-01-22T01:54:51.391Z,99.90
2018-01-22T01:57:19.453Z,99.90
2018-01-22T01:59:47.515Z,99.90
2018-01-22T02:02:15.449Z,99.90
2018-01-22T02:04:44.162Z,99.90
2018-01-22T02:07:12.293Z,99.90
2018-01-22T02:09:40.217Z,99.90
2018-01-22T02:12:08.159Z,99.90
2018-01-22T02:14:36.227Z,99.90
2018-01-22T02:17:04.950Z,99.90
2018-01-22T02:19:32.913Z,99.90
2018-01-22T02:22:01.037Z,99.90
2018-01-22T02:24:28.986Z,99.90
2018-01-22T02:26:56.947Z,99.90
2018-01-22T02:29:25.023Z,99.90
2018-01-22T02:31:52.970Z,99.90
2018-01-22T02:34:20.934Z,99.90
2018-01-22T02:36:49.058Z,99.90
2018-01-22T02:39:17.003Z,99.90
2018-01-22T02:41:44.923Z,99.90
2018-01-22T02:44:13.787Z,99.90
2018-01-22T02:46:41.861Z,99.90
2018-01-22T02:49:09.825Z,99.90
2018-01-22T02:51:37.901Z,99.90
2018-01-22T02:54:05.813Z,99.90
2018-01-22T02:56:33.953Z,99.90
2018-01-22T02:59:02.020Z,99.90
2018-01-22T03:01:30.059Z,99.90
2018-01-22T03:03:57.981Z,99.90
2018-01-22T03:06:26.926Z,99.90
2018-01-22T03:08:54.850Z,99.90
2018-01-22T03:11:23.507Z,99.90
2018-01-22T03:13:51.691Z,99.90
2018-01-22T03:16:19.770Z,99.90
2018-01-22T03:18:48.473Z,99.90
2018-01-22T03:21:17.264Z,99.90
2018-01-22T03:23:45.945Z,99.90
2018-01-22T03:26:14.623Z,99.90
2018-01-22T03:28:43.455Z,99.90
2018-01-22T03:31:11.413Z,99.90
2018-01-22T03:33:39.349Z,99.90
2018-01-22T03:36:07.527Z,99.90
2018-01-22T03:38:36.301Z,99.90
2018-01-22T03:41:04.253Z,99.90
2018-01-22T03:43:32.333Z,99.90
2018-01-22T03:46:00.393Z,99.90
2018-01-22T03:48:28.333Z,99.90
2018-01-22T03:50:56.393Z,99.90
2018-01-22T03:53:29.714Z,99.90
2018-01-22T03:55:58.805Z,99.90
2018-01-22T03:58:27.901Z,99.90
2018-01-22T04:00:55.835Z,99.90
2018-01-22T04:03:24.651Z,99.90
2018-01-22T04:05:52.579Z,99.90
2018-01-22T04:08:20.525Z,99.90
2018-01-22T04:10:48.578Z,99.90
2018-01-22T04:13:16.485Z,99.90
2018-01-22T04:15:44.437Z,99.90
2018-01-22T04:18:12.503Z,99.90
2018-01-22T04:20:40.433Z,99.90
2018-01-22T04:23:09.109Z,99.90
2018-01-22T04:25:37.951Z,99.90
2018-01-22T04:28:05.897Z,99.90
2018-01-22T04:30:33.824Z,99.90
2018-01-22T04:33:01.879Z,99.90
2018-01-22T04:35:29.927Z,99.90
2018-01-22T04:37:57.861Z,99.90
2018-01-22T04:40:26.655Z,99.90
2018-01-22T04:42:55.339Z,99.90
2018-01-22T04:45:24.009Z,99.90
2018-01-22T04:47:52.047Z,99.90
2018-01-22T04:50:19.994Z,99.90
2018-01-22T04:52:47.922Z,99.90
2018-01-22T04:55:16.728Z,99.90
2018-01-22T04:57:45.413Z,99.90
2018-01-22T05:00:14.235Z,99.90
2018-01-22T05:02:42.413Z,99.90
2018-01-22T05:05:10.446Z,99.90
2018-01-22T05:07:39.133Z,99.90
2018-01-22T05:10:07.219Z,99.90
2018-01-22T05:12:35.876Z,99.90
2018-01-22T05:15:03.865Z,99.90
2018-01-22T05:17:32.671Z,99.90
2018-01-22T05:20:00.577Z,99.90
2018-01-22T05:22:28.508Z,99.90
2018-01-22T05:24:56.559Z,99.90
2018-01-22T05:27:24.766Z,99.90
2018-01-22T05:29:52.743Z,99.90
2018-01-22T05:32:20.809Z,99.90
2018-01-22T05:34:48.721Z,99.90
2018-01-22T05:37:16.805Z,99.90
2018-01-22T05:39:44.859Z,99.90
2018-01-22T05:42:12.779Z,99.90
2018-01-22T05:44:41.461Z,99.90
2018-01-22T05:47:10.311Z,99.90
2018-01-22T05:49:38.225Z,99.90
2018-01-22T05:52:06.893Z,99.90
2018-01-22T05:54:35.709Z,99.90
2018-01-22T05:57:03.851Z,99.90
2018-01-22T05:59:31.903Z,99.90
2018-01-22T06:02:00.135Z,99.90
2018-01-22T06:04:28.049Z,99.90
2018-01-22T06:06:56.003Z,99.90
2018-01-22T06:09:24.057Z,99.90
2018-01-22T06:11:52.059Z,99.90
2018-01-22T06:14:20.087Z,99.90
2018-01-22T06:16:48.215Z,99.90
2018-01-22T06:19:16.146Z,99.90
2018-01-22T06:21:44.241Z,99.90
2018-01-22T06:24:12.295Z,99.90
2018-01-22T06:26:40.298Z,99.90
2018-01-22T06:29:08.385Z,99.90
2018-01-22T06:31:36.423Z,99.90
2018-01-22T06:34:04.361Z,99.90
2018-01-22T06:36:32.369Z,99.90
2018-01-22T06:39:00.401Z,99.90
2018-01-22T06:41:29.076Z,99.90
2018-01-22T06:43:57.743Z,99.90
2018-01-22T06:46:25.903Z,99.90
2018-01-22T06:48:53.823Z,99.90
2018-01-22T06:51:21.735Z,99.90
2018-01-22T06:53:49.838Z,99.90
2018-01-22T06:56:17.769Z,99.90
2018-01-22T06:58:45.798Z,99.90
2018-01-22T07:01:14.583Z,99.90
2018-01-22T07:03:43.394Z,99.90
2018-01-22T07:06:11.379Z,99.90
2018-01-22T07:08:39.456Z,99.90
2018-01-22T07:11:07.380Z,99.90
2018-01-22T07:13:36.036Z,99.90
2018-01-22T07:16:04.103Z,99.90
2018-01-22T07:18:32.021Z,99.90
2018-01-22T07:21:00.711Z,99.90
2018-01-22T07:23:28.747Z,99.90
2018-01-22T07:25:56.845Z,99.90
2018-01-22T07:28:30.179Z,99.90
2018-01-22T07:30:59.354Z,99.90
2018-01-22T07:33:32.201Z,99.90
2018-01-22T07:36:01.231Z,99.90
2018-01-22T07:38:29.895Z,99.90
2018-01-22T07:41:01.228Z,99.90
2018-01-22T07:43:29.819Z,99.90
2018-01-22T07:45:57.833Z,99.90
2018-01-22T07:48:25.769Z,99.90
2018-01-22T07:50:53.723Z,99.90
2018-01-22T07:53:21.658Z,99.90
2018-01-22T07:55:49.661Z,99.90
2018-01-22T07:58:17.628Z,99.90
2018-01-22T08:00:45.551Z,99.90
2018-01-22T08:03:13.486Z,99.90
2018-01-22T08:05:41.704Z,99.90
2018-01-22T08:08:09.607Z,99.90
2018-01-22T08:10:37.541Z,98.50
2018-01-22T08:13:05.587Z,97.80
2018-01-22T08:15:34.246Z,97.70
2018-01-22T08:18:02.181Z,97.70
2018-01-22T08:20:30.215Z,98.50
2018-01-22T08:22:58.898Z,98.70
2018-01-22T08:25:27.554Z,98.90
2018-01-22T08:27:55.611Z,98.90
2018-01-22T08:30:23.569Z,98.90
2018-01-22T08:32:51.506Z,98.90
2018-01-22T08:35:20.321Z,99.70
2018-01-22T08:37:48.247Z,99.70
2018-01-22T08:40:16.191Z,99.10
2018-01-22T08:42:44.254Z,99.00
2018-01-22T08:45:12.176Z,99.10
2018-01-22T08:47:40.839Z,99.40
2018-01-22T08:50:08.891Z,99.40
2018-01-22T08:52:36.853Z,98.70
2018-01-22T08:55:04.786Z,97.90
2018-01-22T08:57:32.842Z,97.80
2018-01-22T09:00:01.519Z,96.80
2018-01-22T09:02:29.427Z,96.80
2018-01-22T09:04:57.485Z,96.00
2018-01-22T09:07:25.591Z,94.20
2018-01-22T09:09:53.491Z,94.60
2018-01-22T09:12:21.529Z,95.20
2018-01-22T09:14:49.444Z,95.30
2018-01-22T09:17:17.490Z,93.70
2018-01-22T09:19:45.540Z,93.30
2018-01-22T09:22:13.466Z,93.50
2018-01-22T09:24:42.147Z,93.50
2018-01-22T09:27:11.013Z,93.20
2018-01-22T09:29:38.950Z,93.20
2018-01-22T09:32:06.893Z,93.00
2018-01-22T09:34:35.680Z,92.80
2018-01-22T09:37:04.407Z,92.40
2018-01-22T09:39:32.341Z,92.40
2018-01-22T09:42:01.141Z,94.00
2018-01-22T09:44:29.078Z,94.40
2018-01-22T09:46:57.129Z,93.10
2018-01-22T09:49:25.221Z,94.10
2018-01-22T09:51:53.193Z,94.10
2018-01-22T09:54:21.150Z,94.70
2018-01-22T09:56:49.357Z,95.10
2018-01-22T09:59:18.003Z,95.40
2018-01-22T10:01:45.929Z,95.50
2018-01-22T10:04:13.973Z,95.10
2018-01-22T10:06:41.933Z,94.20
2018-01-22T10:09:09.990Z,94.80
2018-01-22T10:11:38.102Z,96.10
2018-01-22T10:14:06.806Z,96.80
2018-01-22T10:16:34.795Z,96.80
2018-01-22T10:19:02.869Z,96.40
2018-01-22T10:21:30.801Z,96.30
2018-01-22T10:23:59.493Z,96.80
2018-01-22T10:26:28.353Z,99.30
2018-01-22T10:28:56.297Z,99.30
2018-01-22T10:31:24.216Z,99.10
2018-01-22T10:33:53.023Z,98.00
2018-01-22T10:36:21.787Z,97.30
2018-01-22T10:38:50.480Z,97.70
2018-01-22T10:41:19.281Z,95.80
2018-01-22T10:43:47.992Z,94.70
2018-01-22T10:46:15.911Z,94.80
2018-01-22T10:48:43.983Z,96.40
2018-01-22T10:51:11.887Z,95.70
2018-01-22T10:53:40.555Z,95.60
2018-01-22T10:56:09.365Z,95.40
2018-01-22T10:58:37.333Z,95.40
2018-01-22T11:01:06.033Z,93.90
2018-01-22T11:03:34.101Z,93.90
2018-01-22T11:06:02.151Z,94.10
2018-01-22T11:08:30.807Z,95.00
2018-01-22T11:10:59.036Z,95.00
2018-01-22T11:13:26.998Z,95.00
2018-01-22T11:16:01.479Z,96.20
2018-01-22T11:18:29.416Z,96.30
2018-01-22T11:20:57.338Z,96.20
2018-01-22T11:23:25.409Z,95.20
2018-01-22T11:25:53.332Z,97.30
2018-01-22T11:28:21.311Z,96.20
2018-01-22T11:30:49.358Z,96.60
2018-01-22T11:33:17.287Z,97.50
2018-01-22T11:35:45.203Z,97.60
2018-01-22T11:38:13.257Z,96.50
2018-01-22T11:40:41.933Z,96.80
2018-01-22T11:43:10.625Z,97.50
2018-01-22T11:45:39.421Z,98.00
2018-01-22T11:48:08.110Z,98.60
2018-01-22T11:50:36.055Z,98.60
2018-01-22T11:53:04.122Z,99.90
2018-01-22T11:55:32.229Z,99.90
2018-01-22T11:58:00.143Z,99.90
2018-01-22T12:00:28.218Z,99.90
2018-01-22T12:02:56.155Z,99.90
2018-01-22T12:05:24.100Z,99.90
2018-01-22T12:07:52.901Z,99.90
2018-01-22T12:10:20.831Z,99.90
2018-01-22T12:12:48.989Z,99.90
2018-01-22T12:15:17.167Z,99.90
2018-01-22T12:17:45.114Z,99.90
2018-01-22T12:20:13.027Z,99.90
2018-01-22T12:22:41.139Z,99.90
2018-01-22T12:25:09.217Z,99.90
2018-01-22T12:27:37.259Z,99.90
2018-01-22T12:30:06.088Z,99.90
2018-01-22T12:32:34.010Z,99.90
2018-01-22T12:35:01.961Z,99.90
2018-01-22T12:37:30.141Z,99.90
2018-01-22T12:39:58.095Z,99.90
2018-01-22T12:42:26.017Z,99.60
2018-01-22T12:44:54.819Z,99.80
2018-01-22T12:47:22.761Z,99.80
2018-01-22T12:49:51.458Z,99.50
2018-01-22T12:52:20.253Z,98.90
2018-01-22T12:54:48.932Z,99.10
2018-01-22T12:57:17.721Z,99.60
2018-01-22T12:59:46.497Z,99.60
2018-01-22T13:02:14.431Z,99.60
2018-01-22T13:04:42.365Z,99.90
2018-01-22T13:07:10.488Z,99.90
2018-01-22T13:09:38.427Z,99.90
2018-01-22T13:12:06.362Z,99.90
2018-01-22T13:14:35.311Z,99.80
2018-01-22T13:17:03.289Z,99.80
2018-01-22T13:19:31.353Z,99.90
2018-01-22T13:21:59.400Z,99.90
2018-01-22T13:24:27.315Z,99.90
2018-01-22T13:26:55.326Z,99.90
2018-01-22T13:29:23.405Z,99.90
2018-01-22T13:31:51.349Z,99.90
2018-01-22T13:34:20.054Z,99.90
2018-01-22T13:36:48.909Z,99.90
2018-01-22T13:39:16.841Z,99.90
2018-01-22T13:41:44.790Z,99.90
2018-01-22T13:44:12.853Z,99.90
2018-01-22T13:46:41.601Z,99.90
2018-01-22T13:49:09.668Z,99.90
2018-01-22T13:51:37.736Z,99.90
2018-01-22T13:54:05.661Z,99.90
2018-01-22T13:56:33.663Z,99.90
2018-01-22T13:59:01.711Z,99.90
2018-01-22T14:01:29.657Z,99.90
2018-01-22T14:03:58.306Z,99.90
2018-01-22T14:06:26.403Z,99.90
2018-01-22T14:08:54.378Z,99.90
2018-01-22T14:11:22.300Z,99.90
2018-01-22T14:13:50.391Z,99.90
2018-01-22T14:16:18.457Z,99.90
2018-01-22T14:18:46.371Z,99.90
2018-01-22T14:21:15.263Z,99.80
2018-01-22T14:23:43.941Z,99.90
2018-01-22T14:26:12.103Z,99.90
2018-01-22T14:28:40.299Z,99.70
2018-01-22T14:31:08.969Z,99.90
2018-01-22T14:33:36.899Z,99.90
2018-01-22T14:36:04.889Z,99.90
2018-01-22T14:38:32.822Z,99.90
2018-01-22T14:41:00.790Z,99.90
2018-01-22T14:43:28.853Z,99.90
2018-01-22T14:45:57.509Z,99.90
2018-01-22T14:48:25.445Z,99.90
2018-01-22T14:50:53.541Z,99.90
2018-01-22T14:53:21.491Z,99.90
2018-01-22T14:55:49.414Z,99.90
2018-01-22T14:58:18.210Z,99.60
2018-01-22T15:00:46.925Z,99.80
2018-01-22T15:03:14.869Z,99.80
2018-01-22T15:05:43.659Z,99.90
2018-01-22T15:08:12.319Z,99.90
2018-01-22T15:10:40.269Z,99.90
2018-01-22T15:13:08.350Z,99.90
2018-01-22T15:15:36.293Z,99.90
2018-01-22T15:18:04.343Z,99.90
2018-01-22T15:20:32.773Z,99.90
2018-01-22T15:23:00.695Z,99.90
2018-01-22T15:25:28.692Z,99.90
2018-01-22T15:27:56.958Z,99.90
2018-01-22T15:30:24.927Z,99.90
2018-01-22T15:32:52.887Z,99.90
2018-01-22T15:35:20.951Z,99.90
2018-01-22T15:37:48.884Z,99.90
2018-01-22T15:40:16.791Z,99.90
2018-01-22T15:42:44.910Z,99.90
2018-01-22T15:45:12.862Z,99.90
2018-01-22T15:47:40.827Z,99.90
2018-01-22T15:50:09.036Z,99.90
2018-01-22T15:52:38.232Z,99.90
2018-01-22T15:55:06.171Z,99.90
2018-01-22T15:57:34.300Z,99.90
2018-01-22T16:00:03.203Z,99.90
2018-01-22T16:02:31.928Z,99.90
2018-01-22T16:05:00.056Z,99.90
2018-01-22T16:07:28.807Z,99.90
2018-01-22T16:09:56.797Z,99.90
2018-01-22T16:12:25.823Z,99.90
2018-01-22T16:14:53.790Z,99.90
2018-01-22T16:17:22.564Z,99.90
2018-01-22T16:19:51.768Z,99.90
2018-01-22T16:22:20.810Z,99.90
2018-01-22T16:24:48.950Z,99.90
2018-01-22T16:27:17.889Z,99.90
2018-01-22T16:29:45.936Z,99.90
2018-01-22T16:32:15.768Z,99.90
2018-01-22T16:34:44.012Z,99.90
2018-01-22T16:37:14.400Z,99.90
2018-01-22T16:39:43.193Z,99.90
2018-01-22T16:42:11.305Z,99.90
2018-01-22T16:44:39.452Z,99.90
2018-01-22T16:47:14.037Z,99.90
2018-01-22T16:49:42.083Z,99.90
2018-01-22T16:52:10.123Z,99.90
2018-01-22T16:54:39.969Z,99.90
2018-01-22T16:57:08.929Z,99.90
2018-01-22T16:59:37.794Z,99.90
2018-01-22T17:02:05.990Z,99.90
2018-01-22T17:04:33.994Z,99.90
2018-01-22T17:07:02.081Z,99.90
2018-01-22T17:09:30.227Z,99.90
2018-01-22T17:11:58.937Z,99.90
2018-01-22T17:14:26.899Z,99.90
2018-01-22T17:16:55.060Z,99.90
2018-01-22T17:19:23.756Z,99.90
2018-01-22T17:21:52.597Z,99.90
2018-01-22T17:24:20.802Z,99.90
2018-01-22T17:26:48.843Z,99.90
2018-01-22T17:29:16.760Z,99.90
2018-01-22T17:31:45.539Z,99.90
2018-01-22T17:34:14.221Z,99.90
2018-01-22T17:36:42.292Z,99.90
2018-01-22T17:39:10.379Z,99.90
2018-01-22T17:41:39.060Z,99.90
2018-01-22T17:44:08.483Z,99.90
2018-01-22T17:46:36.608Z,99.90
2018-01-22T17:49:04.647Z,99.90
2018-01-22T17:51:32.570Z,99.90
2018-01-22T17:54:00.638Z,99.90
2018-01-22T17:56:28.639Z,99.90
2018-01-22T17:58:57.271Z,99.90
2018-01-22T18:01:25.358Z,99.90
2018-01-22T18:03:53.258Z,99.90
2018-01-22T18:06:22.006Z,99.90
2018-01-22T18:08:50.043Z,99.90
2018-01-22T18:11:17.968Z,99.90
2018-01-22T18:13:47.219Z,99.90
2018-01-22T18:16:15.326Z,99.90
2018-01-22T18:18:43.272Z,99.90
2018-01-22T18:21:11.207Z,99.90
2018-01-22T18:23:41.707Z,99.90
2018-01-22T18:26:11.017Z,99.90
2018-01-22T18:28:40.289Z,99.90
2018-01-22T18:31:08.373Z,99.90
2018-01-22T18:33:36.300Z,99.90
2018-01-22T18:36:04.317Z,99.90
2018-01-22T18:38:32.434Z,99.90
2018-01-22T18:41:00.359Z,99.90
2018-01-22T18:43:28.297Z,99.90
2018-01-22T18:45:56.523Z,99.90
2018-01-22T18:48:24.474Z,99.90
2018-01-22T18:50:52.387Z,99.90
2018-01-22T18:53:21.183Z,99.90
2018-01-22T18:55:49.099Z,99.90
2018-01-22T18:58:17.040Z,99.90
2018-01-22T19:00:45.141Z,99.90
2018-01-22T19:03:13.093Z,99.90
2018-01-22T19:05:41.031Z,99.90
2018-01-22T19:08:09.089Z,99.90
2018-01-22T19:10:37.801Z,99.90
2018-01-22T19:13:05.741Z,99.90
2018-01-22T19:15:34.526Z,99.90
2018-01-22T19:18:03.210Z,99.90
2018-01-22T19:20:31.161Z,99.90
2018-01-22T19:22:59.243Z,99.90
2018-01-22T19:25:27.311Z,99.90
2018-01-22T19:27:55.277Z,99.90
2018-01-22T19:30:23.383Z,99.90
2018-01-22T19:32:52.053Z,99.90
2018-01-22T19:35:20.037Z,99.90
2018-01-22T19:37:48.955Z,99.90
2018-01-22T19:40:16.895Z,99.90
2018-01-22T19:42:45.554Z,99.90
2018-01-22T19:45:13.616Z,99.90
2018-01-22T19:47:41.541Z,99.90
2018-01-22T19:50:10.200Z,99.90
2018-01-22T19:52:38.253Z,99.90
2018-01-22T19:55:06.195Z,99.90
2018-01-22T19:57:34.200Z,99.90
2018-01-22T20:00:02.285Z,99.90
2018-01-22T20:02:30.240Z,99.90
2018-01-22T20:04:58.131Z,99.90
2018-01-22T20:07:26.180Z,99.90
2018-01-22T20:09:54.145Z,99.90
2018-01-22T20:12:22.099Z,99.90
2018-01-22T20:14:50.163Z,99.90
2018-01-22T20:17:18.158Z,99.90
2018-01-22T20:19:46.096Z,99.90
2018-01-22T20:22:14.145Z,99.90
2018-01-22T20:24:42.857Z,99.90
2018-01-22T20:27:10.981Z,99.90
2018-01-22T20:29:39.051Z,99.90
2018-01-22T20:32:06.979Z,99.90
2018-01-22T20:34:34.895Z,99.90
2018-01-22T20:37:03.174Z,99.90
2018-01-22T20:39:31.252Z,99.90
2018-01-22T20:42:00.427Z,99.90
2018-01-22T20:44:28.459Z,99.90
2018-01-22T20:46:56.481Z,99.90
2018-01-22T20:49:24.411Z,99.90
2018-01-22T20:51:52.477Z,99.90
2018-01-22T20:54:20.398Z,99.90
2018-01-22T20:56:48.428Z,99.90
2018-01-22T20:59:16.487Z,99.90
2018-01-22T21:01:44.419Z,99.90
2018-01-22T21:04:12.361Z,99.90
2018-01-22T21:06:40.489Z,99.90
2018-01-22T21:09:08.403Z,99.90
2018-01-22T21:11:36.350Z,99.90
2018-01-22T21:14:04.397Z,99.90
2018-01-22T21:16:33.091Z,99.90
2018-01-22T21:19:01.022Z,99.90
2018-01-22T21:21:29.069Z,99.90
2018-01-22T21:23:57.025Z,99.90
2018-01-22T21:26:24.985Z,99.90
2018-01-22T21:28:53.170Z,99.90
2018-01-22T21:31:21.089Z,99.90
2018-01-22T21:33:49.023Z,99.90
2018-01-22T21:36:17.113Z,99.90
2018-01-22T21:38:45.055Z,99.90
2018-01-22T21:41:13.026Z,99.90
2018-01-22T21:43:41.071Z,99.90
2018-01-22T21:46:08.995Z,99.90
2018-01-22T21:48:36.941Z,99.90
2018-01-22T21:51:05.015Z,99.90
2018-01-22T21:53:32.962Z,99.90
2018-01-22T21:56:00.888Z,99.90
2018-01-22T21:58:28.964Z,99.90
2018-01-22T22:00:56.912Z,99.90
2018-01-22T22:03:24.873Z,99.90
2018-01-22T22:05:52.949Z,99.90
2018-01-22T22:08:20.870Z,99.90
2018-01-22T22:10:49.541Z,99.90
2018-01-22T22:13:18.345Z,99.90
2018-01-22T22:15:47.007Z,99.90
2018-01-22T22:18:14.906Z,99.90
2018-01-22T22:20:43.713Z,99.90
2018-01-22T22:23:11.657Z,99.90
2018-01-22T22:25:40.331Z,99.90
2018-01-22T22:28:09.123Z,99.90
2018-01-22T22:30:37.928Z,99.90
2018-01-22T22:33:06.595Z,99.90
2018-01-22T22:35:34.667Z,99.90
2018-01-22T22:38:02.589Z,99.90
2018-01-22T22:40:30.544Z,99.90
2018-01-22T22:42:58.594Z,99.90
2018-01-22T22:45:27.257Z,99.90
2018-01-22T22:47:55.213Z,99.90
2018-01-22T22:50:23.394Z,99.90
2018-01-22T22:52:51.339Z,99.90
2018-01-22T22:55:19.282Z,99.90
2018-01-22T22:57:47.396Z,99.90
2018-01-22T23:00:15.380Z,99.90
2018-01-22T23:02:43.284Z,99.90
2018-01-22T23:05:12.059Z,99.90
2018-01-22T23:07:40.747Z,99.90
2018-01-22T23:10:09.397Z,99.90
2018-01-22T23:12:37.467Z,99.90
2018-01-22T23:15:05.401Z,99.90
2018-01-22T23:17:33.327Z,99.90
2018-01-22T23:20:01.399Z,99.90
2018-01-22T23:22:29.311Z,99.90
2018-01-22T23:24:57.233Z,99.90
2018-01-22T23:27:25.309Z,99.90
2018-01-22T23:29:53.261Z,99.90
2018-01-22T23:32:21.303Z,99.90
2018-01-22T23:34:49.497Z,99.90
2018-01-22T23:37:17.473Z,99.90
2018-01-22T23:39:45.386Z,99.90
2018-01-22T23:42:14.255Z,99.90
2018-01-22T23:44:42.175Z,99.90
2018-01-22T23:47:10.173Z,99.90
2018-01-22T23:49:38.219Z,99.90
2018-01-22T23:52:06.421Z,99.90
2018-01-22T23:54:34.339Z,99.90
2018-01-22T23:57:03.229Z,99.90
2018-01-22T23:59:31.977Z,99.90
